createdAt,value
2023-01-07T00:01:53.408Z,85.04
2023-01-07T00:05:57.024Z,85.17
2023-01-07T00:07:58.593Z,84.96
2023-01-07T00:10:00.028Z,85.02
2023-01-07T00:12:01.412Z,85.04
2023-01-07T00:16:05.199Z,85.21
2023-01-07T00:18:06.334Z,85.35
2023-01-07T00:20:08.227Z,85.39
2023-01-07T00:22:09.857Z,85.37
2023-01-07T00:24:10.828Z,85.17
2023-01-07T00:26:12.594Z,84.97
2023-01-07T00:28:13.713Z,84.81
2023-01-07T00:30:14.688Z,84.88
2023-01-07T00:32:15.754Z,85
2023-01-07T00:34:17.130Z,85.12
2023-01-07T00:36:18.303Z,85.34
2023-01-07T00:38:20.185Z,85.6
2023-01-07T00:40:22.010Z,85.65
2023-01-07T00:42:23.838Z,85.82
2023-01-07T00:44:24.895Z,85.93
2023-01-07T00:46:26.054Z,85.97
2023-01-07T00:48:27.114Z,85.79
2023-01-07T00:50:28.602Z,86.03
2023-01-07T00:52:29.664Z,86.14
2023-01-07T00:54:31.299Z,86.13
2023-01-07T00:56:33.227Z,86.21
2023-01-07T00:58:34.236Z,86.35
2023-01-07T01:00:36.122Z,86.3
2023-01-07T01:04:39.543Z,86.46
2023-01-07T01:06:40.916Z,86.6
2023-01-07T01:08:42.353Z,86.78
2023-01-07T01:10:43.686Z,87.05
2023-01-07T01:14:46.891Z,87.54
2023-01-07T01:16:47.927Z,87.56
2023-01-07T01:18:49.132Z,87.66
2023-01-07T01:20:50.945Z,87.78
2023-01-07T01:22:52.415Z,87.9
2023-01-07T01:24:53.967Z,87.82
2023-01-07T01:26:55.229Z,87.98
2023-01-07T01:28:56.249Z,87.67
2023-01-07T01:30:57.688Z,87.59
2023-01-07T01:32:59.573Z,87.72
2023-01-07T01:35:01.377Z,87.63
2023-01-07T01:37:03.160Z,87.6
2023-01-07T01:39:04.120Z,87.62
2023-01-07T01:41:05.205Z,87.52
2023-01-07T01:43:06.492Z,87.64
2023-01-07T01:45:07.661Z,87.44
2023-01-07T01:47:09.172Z,87.36
2023-01-07T01:49:10.507Z,87.53
2023-01-07T01:51:12.317Z,87.45
2023-01-07T01:53:14.225Z,87.16
2023-01-07T01:57:16.904Z,87.4
2023-01-07T01:59:18.210Z,87.31
2023-01-07T02:01:19.333Z,87.23
2023-01-07T02:03:20.457Z,87.27
2023-01-07T02:05:22.070Z,88.01
2023-01-07T02:07:23.197Z,88.37
2023-01-07T02:09:24.689Z,88.54
2023-01-07T02:11:26.438Z,88.75
2023-01-07T02:13:27.865Z,88.8
2023-01-07T02:15:29.503Z,88.77
2023-01-07T02:17:31.115Z,88.9
2023-01-07T02:19:32.127Z,89.08
2023-01-07T02:21:33.962Z,89.24
2023-01-07T02:23:35.819Z,89.37
2023-01-07T02:25:37.322Z,89.58
2023-01-07T02:29:40.050Z,89.95
2023-01-07T02:31:41.323Z,90.03
2023-01-07T02:33:43.213Z,89.92
2023-01-07T02:35:44.628Z,89.94
2023-01-07T02:39:47.530Z,90.06
2023-01-07T02:41:49.160Z,90.13
2023-01-07T02:43:50.879Z,90.15
2023-01-07T02:45:52.895Z,90.29
2023-01-07T02:47:54.292Z,90.64
2023-01-07T02:49:55.767Z,90.72
2023-01-07T02:51:56.842Z,90.85
2023-01-07T02:53:57.838Z,90.79
2023-01-07T02:55:59.132Z,90.67
2023-01-07T02:58:00.159Z,90.66
2023-01-07T03:00:02.073Z,90.68
2023-01-07T03:02:03.558Z,90.78
2023-01-07T03:04:05.056Z,90.89
2023-01-07T03:06:06.503Z,91.06
2023-01-07T03:08:08.208Z,91.1
2023-01-07T03:10:09.894Z,91.2
2023-01-07T03:12:11.062Z,91.36
2023-01-07T03:14:11.988Z,91.35
2023-01-07T03:16:13.443Z,91.39
2023-01-07T03:18:14.805Z,91.27
2023-01-07T03:20:16.073Z,91.25
2023-01-07T03:22:17.437Z,91.16
2023-01-07T03:24:18.960Z,91.15
2023-01-07T03:28:21.688Z,90.85
2023-01-07T03:30:23.338Z,90.81
2023-01-07T03:32:25.095Z,90.69
2023-01-07T03:34:26.088Z,90.63
2023-01-07T03:38:28.554Z,91.42
2023-01-07T03:40:30.159Z,91.59
2023-01-07T03:42:31.122Z,92.15
2023-01-07T03:44:33.064Z,92.02
2023-01-07T03:46:34.717Z,91.81
2023-01-07T03:48:36.074Z,91.77
2023-01-07T03:50:37.356Z,92.1
2023-01-07T03:52:39.115Z,92.31
2023-01-07T03:54:40.090Z,92.51
2023-01-07T03:56:41.677Z,92.73
2023-01-07T03:58:43.276Z,92.78
2023-01-07T04:00:44.550Z,91.97
2023-01-07T04:02:45.664Z,91.72
2023-01-07T04:04:47.402Z,92.06
2023-01-07T04:06:48.595Z,92.11
2023-01-07T04:08:50.299Z,92.11
2023-01-07T04:10:52.061Z,92.38
2023-01-07T04:12:53.251Z,92.49
2023-01-07T04:14:54.791Z,92.64
2023-01-07T04:16:56.710Z,90.41
2023-01-07T04:21:00.151Z,88.26
2023-01-07T04:23:01.787Z,88.96
2023-01-07T04:25:03.459Z,89.13
2023-01-07T04:27:05.106Z,89.75
2023-01-07T04:29:06.255Z,90.5
2023-01-07T04:31:07.640Z,89.89
2023-01-07T04:33:08.626Z,89.41
2023-01-07T04:35:09.813Z,90.1
2023-01-07T04:37:11.670Z,89.02
2023-01-07T04:39:13.131Z,89.02
2023-01-07T04:41:14.219Z,88.8
2023-01-07T04:43:15.611Z,87.37
2023-01-07T04:45:16.957Z,87
2023-01-07T04:47:18.057Z,87.24
2023-01-07T04:49:19.755Z,87.11
2023-01-07T04:51:21.448Z,86.74
2023-01-07T04:53:23.347Z,86.52
2023-01-07T04:55:25.251Z,86.45
2023-01-07T04:57:26.253Z,85.94
2023-01-07T04:59:27.623Z,85.76
2023-01-07T05:03:30.024Z,85.94
2023-01-07T05:05:31.747Z,85.63
2023-01-07T05:07:33.380Z,85.36
2023-01-07T05:09:34.851Z,85.47
2023-01-07T05:13:37.435Z,85.45
2023-01-07T05:15:39.243Z,85.26
2023-01-07T05:17:40.666Z,85.43
2023-01-07T05:19:42.412Z,85.34
2023-01-07T05:21:43.722Z,84.91
2023-01-07T05:25:46.927Z,85.15
2023-01-07T05:27:48.854Z,85.38
2023-01-07T05:29:50.433Z,84.9
2023-01-07T05:31:51.373Z,85.41
2023-01-07T05:35:54.490Z,86.19
2023-01-07T05:37:55.900Z,86.26
2023-01-07T05:39:57.230Z,85.62
2023-01-07T05:41:58.329Z,86.22
2023-01-07T05:44:00.120Z,86.76
2023-01-07T05:46:01.142Z,86.76
2023-01-07T05:48:02.177Z,86.04
2023-01-07T05:50:04.000Z,85.9
2023-01-07T05:52:05.921Z,86.36
2023-01-07T05:54:06.854Z,85.39
2023-01-07T05:56:08.061Z,84.85
2023-01-07T05:58:09.482Z,85.01
2023-01-07T06:00:10.812Z,85.22
2023-01-07T06:02:11.885Z,84.99
2023-01-07T06:04:13.023Z,84.31
2023-01-07T06:04:56.913Z,84.27
2023-01-07T06:06:58.451Z,83.92
2023-01-07T06:08:59.550Z,84.88
2023-01-07T06:13:02.729Z,84.75
2023-01-07T06:15:04.434Z,83.75
2023-01-07T06:17:05.573Z,84.27
2023-01-07T06:19:06.662Z,85.84
2023-01-07T06:21:08.532Z,85.71
2023-01-07T06:23:09.873Z,84.49
2023-01-07T06:25:10.851Z,85.24
2023-01-07T06:27:12.292Z,84.78
2023-01-07T06:29:13.926Z,84.53
2023-01-07T06:31:15.720Z,84.33
2023-01-07T06:33:17.129Z,86.21
2023-01-07T06:35:18.888Z,85.46
2023-01-07T06:37:20.771Z,84.32
2023-01-07T06:39:22.689Z,83.88
2023-01-07T06:41:23.943Z,84.44
2023-01-07T06:43:25.743Z,83.57
2023-01-07T06:45:27.504Z,82.7
2023-01-07T06:47:28.545Z,82.97
2023-01-07T06:49:29.748Z,82.31
2023-01-07T06:51:31.259Z,82.2
2023-01-07T06:55:34.714Z,83.21
2023-01-07T06:57:35.966Z,83.44
2023-01-07T06:59:37.661Z,85.39
2023-01-07T07:01:39.321Z,85.79
2023-01-07T07:03:41.091Z,86.37
2023-01-07T07:05:42.536Z,85.25
2023-01-07T07:07:44.310Z,84.84
2023-01-07T07:09:45.407Z,86
2023-01-07T07:11:46.918Z,86.17
2023-01-07T07:13:48.587Z,86.9
2023-01-07T07:15:50.101Z,85.05
2023-01-07T07:17:51.748Z,84
2023-01-07T07:19:53.245Z,84.44
2023-01-07T07:21:55.139Z,85.6
2023-01-07T07:23:56.763Z,87
2023-01-07T07:25:58.429Z,86.17
2023-01-07T07:27:59.814Z,85.15
2023-01-07T07:30:00.875Z,82.7
2023-01-07T07:32:02.540Z,85.47
2023-01-07T07:34:04.194Z,86.44
2023-01-07T07:38:07.917Z,85.52
2023-01-07T07:40:09.703Z,82.01
2023-01-07T07:44:11.988Z,81.62
2023-01-07T07:46:13.747Z,80.83
2023-01-07T07:48:15.379Z,80.11
2023-01-07T07:50:16.777Z,80.68
2023-01-07T07:52:17.694Z,79.41
2023-01-07T07:54:19.404Z,80.17
2023-01-07T07:56:21.136Z,79.73
2023-01-07T07:58:22.871Z,79.51
2023-01-07T08:00:24.450Z,80.2
2023-01-07T08:02:25.740Z,82.08
2023-01-07T08:04:27.067Z,81.25
2023-01-07T08:06:28.787Z,82.64
2023-01-07T08:08:29.967Z,83.42
2023-01-07T08:10:31.410Z,83.44
2023-01-07T08:12:33.077Z,83.27
2023-01-07T08:14:34.033Z,83.03
2023-01-07T08:16:35.279Z,83.32
2023-01-07T08:18:36.290Z,83.65
2023-01-07T08:20:37.722Z,84.26
2023-01-07T08:22:39.229Z,83.14
2023-01-07T08:24:40.285Z,81.67
2023-01-07T08:26:41.567Z,80.73
2023-01-07T08:28:45.152Z,82.79
2023-01-07T08:30:44.751Z,83.74
2023-01-07T08:32:46.452Z,84.14
2023-01-07T08:36:48.992Z,83.68
2023-01-07T08:38:50.791Z,83.48
2023-01-07T08:40:52.038Z,83.38
2023-01-07T08:42:53.171Z,83.84
2023-01-07T08:44:54.972Z,84.29
2023-01-07T08:46:56.133Z,84.85
2023-01-07T08:48:57.293Z,84.85
2023-01-07T08:50:58.630Z,83.01
2023-01-07T08:52:59.793Z,81.71
2023-01-07T08:55:01.590Z,81.83
2023-01-07T08:57:03.388Z,83.35
2023-01-07T08:59:05.050Z,82.21
2023-01-07T09:01:06.335Z,82.5
2023-01-07T09:03:07.196Z,81.72
2023-01-07T09:05:08.892Z,83.41
2023-01-07T09:07:10.883Z,81.94
2023-01-07T09:09:12.133Z,82.18
2023-01-07T09:11:13.977Z,81.93
2023-01-07T09:13:15.395Z,81.55
2023-01-07T09:15:16.615Z,81.16
2023-01-07T09:19:19.135Z,81.63
2023-01-07T09:21:20.343Z,81.21
2023-01-07T09:23:22.033Z,81.39
2023-01-07T09:25:23.899Z,81.66
2023-01-07T09:27:25.303Z,81.93
2023-01-07T09:29:26.892Z,81.73
2023-01-07T09:31:28.400Z,81.86
2023-01-07T09:33:30.055Z,81.29
2023-01-07T09:35:31.432Z,81.46
2023-01-07T09:37:32.979Z,81.45
2023-01-07T09:39:34.676Z,81.34
2023-01-07T09:41:35.999Z,81.5
2023-01-07T09:43:58.995Z,80.96
2023-01-07T09:45:39.432Z,80.68
2023-01-07T09:47:41.175Z,80.23
2023-01-07T09:49:42.486Z,80.36
2023-01-07T09:51:43.973Z,80.19
2023-01-07T09:53:45.849Z,80.15
2023-01-07T09:56:10.244Z,80.38
2023-01-07T09:57:49.382Z,80.95
2023-01-07T10:01:52.804Z,81.64
2023-01-07T10:03:54.095Z,81.28
2023-01-07T10:08:28.902Z,80.61
2023-01-07T10:09:58.494Z,79.5
2023-01-07T10:12:00.138Z,79.92
2023-01-07T10:14:01.799Z,78.83
2023-01-07T10:16:03.243Z,79.58
2023-01-07T10:18:04.780Z,79.5
2023-01-07T10:20:06.668Z,78.7
2023-01-07T10:22:08.170Z,79.13
2023-01-07T10:24:09.214Z,79.5
2023-01-07T10:26:10.483Z,78.85
2023-01-07T10:28:12.004Z,79.49
2023-01-07T10:30:12.961Z,78.85
2023-01-07T10:34:15.223Z,79.69
2023-01-07T10:36:16.189Z,78.82
2023-01-07T10:38:17.537Z,78.01
2023-01-07T10:40:18.898Z,78.13
2023-01-07T10:44:22.167Z,77.43
2023-01-07T10:46:23.972Z,77.31
2023-01-07T10:48:24.911Z,76.38
2023-01-07T10:50:26.685Z,77.17
2023-01-07T10:52:28.542Z,77.59
2023-01-07T10:54:30.413Z,77
2023-01-07T10:56:31.392Z,77.27
2023-01-07T10:58:32.736Z,77.2
2023-01-07T11:00:34.208Z,77.46
2023-01-07T11:02:35.960Z,77.31
2023-01-07T11:04:37.740Z,77.92
2023-01-07T11:06:38.711Z,77.49
2023-01-07T11:08:39.852Z,77.53
2023-01-07T11:10:41.329Z,77.87
2023-01-07T11:12:42.572Z,78.01
2023-01-07T11:14:44.030Z,77.95
2023-01-07T11:16:45.535Z,77.03
2023-01-07T11:18:46.819Z,77.24
2023-01-07T11:20:48.129Z,77.71
2023-01-07T11:22:49.136Z,76.29
2023-01-07T11:27:01.221Z,76.72
2023-01-07T11:28:53.190Z,76.43
2023-01-07T11:32:56.179Z,76.04
2023-01-07T11:34:57.746Z,75.24
2023-01-07T11:36:59.438Z,75.78
2023-01-07T11:39:00.615Z,75.33
2023-01-07T11:43:02.962Z,75.38
2023-01-07T11:45:04.084Z,75.42
2023-01-07T11:47:05.896Z,75.61
2023-01-07T11:49:07.073Z,75.13
2023-01-07T11:51:08.277Z,75.22
2023-01-07T11:53:09.281Z,75.76
2023-01-07T11:55:10.587Z,75.36
2023-01-07T11:57:12.006Z,75.25
2023-01-07T11:59:13.679Z,74.95
2023-01-07T12:01:14.970Z,75.47
2023-01-07T12:03:16.151Z,75.92
2023-01-07T12:05:17.612Z,75.79
2023-01-07T12:07:18.617Z,75.83
2023-01-07T12:09:19.958Z,76.59
2023-01-07T12:11:21.544Z,76.02
2023-01-07T12:13:22.801Z,75.11
2023-01-07T12:15:23.951Z,75.41
2023-01-07T12:17:25.474Z,75.4
2023-01-07T12:19:26.459Z,75.31
2023-01-07T12:21:28.056Z,74.23
2023-01-07T12:25:30.492Z,72.71
2023-01-07T12:27:32.323Z,72.96
2023-01-07T12:29:33.799Z,73.62
2023-01-07T12:31:35.008Z,73.41
2023-01-07T12:33:36.538Z,73.97
2023-01-07T12:35:38.223Z,73.75
2023-01-07T12:37:40.027Z,74.09
2023-01-07T12:39:41.899Z,73.86
2023-01-07T12:41:43.090Z,74.22
2023-01-07T12:43:44.666Z,74.36
2023-01-07T12:45:45.707Z,74.24
2023-01-07T12:47:46.627Z,75.01
2023-01-07T12:49:48.179Z,74.82
2023-01-07T12:50:32.008Z,74.78
2023-01-07T12:52:33.566Z,75.23
2023-01-07T12:54:34.505Z,74.8
2023-01-07T12:56:35.565Z,75.16
2023-01-07T12:58:36.866Z,74.06
2023-01-07T13:02:39.763Z,73.52
2023-01-07T13:04:41.632Z,73.02
2023-01-07T13:06:43.072Z,73.57
2023-01-07T13:08:44.596Z,73.9
2023-01-07T13:10:45.778Z,73.67
2023-01-07T13:12:47.473Z,73.43
2023-01-07T13:14:48.105Z,73.96
2023-01-07T13:18:51.163Z,73.08
2023-01-07T13:20:53.036Z,73.11
2023-01-07T13:22:54.872Z,73.6
2023-01-07T13:24:56.963Z,73.56
2023-01-07T13:26:57.032Z,73.31
2023-01-07T13:28:58.300Z,73.6
2023-01-07T13:30:59.439Z,73.78
2023-01-07T13:33:00.577Z,73.77
2023-01-07T13:35:02.170Z,73.57
2023-01-07T13:37:03.916Z,72.64
2023-01-07T13:39:04.830Z,72.98
2023-01-07T13:41:06.298Z,73.49
2023-01-07T13:43:07.557Z,74.03
2023-01-07T13:45:09.414Z,73.06
2023-01-07T13:47:11.411Z,72.6
2023-01-07T13:49:13.156Z,72.46
2023-01-07T13:51:14.134Z,72.07
2023-01-07T13:53:15.243Z,72.19
2023-01-07T13:55:16.530Z,72.7
2023-01-07T13:57:18.010Z,72.63
2023-01-07T14:01:20.373Z,72.63
2023-01-07T14:03:21.590Z,71.55
2023-01-07T14:05:23.060Z,70.86
2023-01-07T14:07:24.553Z,71.21
2023-01-07T14:09:25.946Z,70.64
2023-01-07T14:11:27.183Z,69.19
2023-01-07T14:13:28.242Z,69.22
2023-01-07T14:15:29.742Z,68.03
2023-01-07T14:17:31.591Z,68.7
2023-01-07T14:19:32.745Z,69.14
2023-01-07T14:21:34.327Z,69.53
2023-01-07T14:23:36.023Z,69.27
2023-01-07T14:25:37.383Z,67.86
2023-01-07T14:27:38.313Z,71.13
2023-01-07T14:29:39.497Z,70.84
2023-01-07T14:33:42.164Z,69.77
2023-01-07T14:35:43.126Z,69.23
2023-01-07T14:37:44.366Z,68.98
2023-01-07T14:39:45.928Z,69.83
2023-01-07T14:43:49.109Z,71.06
2023-01-07T14:45:50.127Z,72.03
2023-01-07T14:47:51.553Z,72.37
2023-01-07T14:49:53.026Z,73.2
2023-01-07T14:51:56.263Z,73.19
2023-01-07T14:53:56.540Z,74.04
2023-01-07T14:55:58.304Z,74.53
2023-01-07T14:57:59.974Z,75.94
2023-01-07T15:00:01.842Z,76.24
2023-01-07T15:02:03.295Z,76.11
2023-01-07T15:04:04.137Z,76.94
2023-01-07T15:06:05.320Z,79.24
2023-01-07T15:08:06.302Z,79.11
2023-01-07T15:10:07.807Z,78.82
2023-01-07T15:12:08.719Z,79.71
2023-01-07T15:16:11.982Z,80.28
2023-01-07T15:18:13.563Z,80.28
2023-01-07T15:20:14.590Z,80.54
2023-01-07T15:22:16.333Z,80.18
2023-01-07T15:26:18.656Z,78.92
2023-01-07T15:28:20.310Z,78.72
2023-01-07T15:30:21.536Z,78.79
2023-01-07T15:32:23.432Z,78.69
2023-01-07T15:34:25.153Z,78.46
2023-01-07T15:36:26.288Z,78.7
2023-01-07T15:38:27.713Z,79.14
2023-01-07T15:40:28.705Z,79.51
2023-01-07T15:42:30.189Z,78.88
2023-01-07T15:44:31.725Z,80.06
2023-01-07T15:46:33.146Z,80.96
2023-01-07T15:48:34.798Z,79.46
2023-01-07T15:50:36.704Z,79.83
2023-01-07T15:52:38.131Z,80.49
2023-01-07T15:54:39.771Z,79.65
2023-01-07T15:56:40.757Z,79.6
2023-01-07T15:58:42.470Z,81.09
2023-01-07T16:00:44.170Z,79.48
2023-01-07T16:02:45.678Z,79.41
2023-01-07T16:04:46.964Z,83.36
2023-01-07T16:06:48.854Z,82.17
2023-01-07T16:08:49.902Z,79.72
2023-01-07T16:10:51.729Z,79.78
2023-01-07T16:12:52.728Z,79.89
2023-01-07T16:14:54.063Z,79.27
2023-01-07T16:16:55.728Z,80.76
2023-01-07T16:18:56.964Z,80.87
2023-01-07T16:20:58.113Z,82.36
2023-01-07T16:25:01.483Z,84.85
2023-01-07T16:27:04.891Z,86.44
2023-01-07T16:29:04.409Z,87.03
2023-01-07T16:31:05.531Z,87.43
2023-01-07T16:33:06.994Z,87.78
2023-01-07T16:35:08.219Z,87.76
2023-01-07T16:37:10.152Z,88.18
2023-01-07T16:39:11.203Z,88.2
2023-01-07T16:41:12.577Z,88.3
2023-01-07T16:43:13.806Z,87.71
2023-01-07T16:45:15.717Z,87.62
2023-01-07T16:47:16.979Z,87.23
2023-01-07T16:49:18.734Z,87.46
2023-01-07T16:51:19.716Z,87.38
2023-01-07T16:53:21.063Z,87.19
2023-01-07T16:55:22.507Z,87.6
2023-01-07T16:57:23.839Z,87.49
2023-01-07T16:59:24.910Z,87.98
2023-01-07T17:01:26.607Z,89.04
2023-01-07T17:03:28.183Z,88.31
2023-01-07T17:07:30.692Z,87.95
2023-01-07T17:09:32.048Z,87.86
2023-01-07T17:11:33.559Z,87.32
2023-01-07T17:13:34.848Z,87.61
2023-01-07T17:15:36.177Z,88.12
2023-01-07T17:17:38.128Z,88.31
2023-01-07T17:19:39.979Z,88.75
2023-01-07T17:21:41.515Z,88.68
2023-01-07T17:23:43.337Z,88.98
2023-01-07T17:25:45.157Z,90.02
2023-01-07T17:27:46.354Z,90.12
2023-01-07T17:29:47.452Z,90.05
2023-01-07T17:31:48.829Z,90.27
2023-01-07T17:33:50.336Z,90.46
2023-01-07T17:35:52.031Z,90.86
2023-01-07T17:39:54.305Z,90.96
2023-01-07T17:41:55.899Z,90.73
2023-01-07T17:43:57.564Z,90.02
2023-01-07T17:45:59.625Z,92.1
2023-01-07T17:50:01.985Z,91.73
2023-01-07T17:52:03.306Z,92.3
2023-01-07T17:56:06.013Z,92.14
2023-01-07T17:58:07.393Z,92.5
2023-01-07T18:00:09.057Z,92.73
2023-01-07T18:02:11.123Z,92.51
2023-01-07T18:04:12.684Z,92.65
2023-01-07T18:06:13.423Z,92.33
2023-01-07T18:08:14.721Z,92.37
2023-01-07T18:10:16.470Z,93.34
2023-01-07T18:12:17.745Z,92.34
2023-01-07T18:14:19.556Z,92.19
2023-01-07T18:16:20.691Z,92.52
2023-01-07T18:18:21.687Z,92.95
2023-01-07T18:20:23.209Z,92.82
2023-01-07T18:22:24.454Z,92.26
2023-01-07T18:24:25.512Z,92.7
2023-01-07T18:26:27.536Z,92.91
2023-01-07T18:28:28.845Z,92.8
2023-01-07T18:30:30.077Z,92.52
2023-01-07T18:32:31.726Z,93.18
2023-01-07T18:34:33.397Z,93.06
2023-01-07T18:38:35.959Z,93.09
2023-01-07T18:40:37.655Z,93
2023-01-07T18:42:39.356Z,92.55
2023-01-07T18:44:40.824Z,93.05
2023-01-07T18:48:43.602Z,93.52
2023-01-07T18:50:45.443Z,93.61
2023-01-07T18:52:47.214Z,93.91
2023-01-07T18:54:48.803Z,93.62
2023-01-07T18:56:50.232Z,93.85
2023-01-07T18:58:51.751Z,93.93
2023-01-07T19:00:53.444Z,94.16
2023-01-07T19:02:54.335Z,93.97
2023-01-07T19:04:56.272Z,93.89
2023-01-07T19:06:57.579Z,93.92
2023-01-07T19:08:59.112Z,94.03
2023-01-07T19:11:01.068Z,94.11
2023-01-07T19:13:02.086Z,93.95
2023-01-07T19:15:03.698Z,94.24
2023-01-07T19:17:05.323Z,94.44
2023-01-07T19:19:06.340Z,94.63
2023-01-07T19:21:08.309Z,94.76
2023-01-07T19:23:09.626Z,94.88
2023-01-07T19:25:11.143Z,94.85
2023-01-07T19:27:12.677Z,95.13
2023-01-07T19:31:15.599Z,95.14
2023-01-07T19:33:17.056Z,95.34
2023-01-07T19:35:18.755Z,95.24
2023-01-07T19:36:02.661Z,95.53
2023-01-07T19:38:13.332Z,95.29
2023-01-07T19:40:06.267Z,95.16
2023-01-07T19:42:07.318Z,94.97
2023-01-07T19:44:09.125Z,94.65
2023-01-07T19:46:10.535Z,94.44
2023-01-07T19:48:12.369Z,94.16
2023-01-07T19:50:14.179Z,93.53
2023-01-07T19:52:15.179Z,93.4
2023-01-07T19:54:16.290Z,92.7
2023-01-07T19:56:18.148Z,93.5
2023-01-07T19:58:19.819Z,93.3
2023-01-07T20:00:20.964Z,93.1
2023-01-07T20:02:22.239Z,92.59
2023-01-07T20:04:23.719Z,91.84
2023-01-07T20:08:27.188Z,91.56
2023-01-07T20:10:28.867Z,91.66
2023-01-07T20:12:30.847Z,91.87
2023-01-07T20:14:32.737Z,91.86
2023-01-07T20:16:33.772Z,92.71
2023-01-07T20:18:35.699Z,92.02
2023-01-07T20:20:37.400Z,91.85
2023-01-07T20:22:38.552Z,92.25
2023-01-07T20:24:39.930Z,92.41
2023-01-07T20:26:41.662Z,92.71
2023-01-07T20:28:43.357Z,92.91
2023-01-07T20:30:44.793Z,93.06
2023-01-07T20:32:46.736Z,93.18
2023-01-07T20:34:48.592Z,93.62
2023-01-07T20:36:50.329Z,93.69
2023-01-07T20:38:51.516Z,92.97
2023-01-07T20:40:53.215Z,93.14
2023-01-07T20:42:54.459Z,93.15
2023-01-07T20:44:56.025Z,93.36
2023-01-07T20:46:57.890Z,93
2023-01-07T20:51:00.175Z,91.79
2023-01-07T20:53:01.219Z,91.92
2023-01-07T20:55:03.024Z,92.28
2023-01-07T20:57:04.333Z,92.18
2023-01-07T20:59:05.990Z,92.48
2023-01-07T21:01:07.351Z,92.68
2023-01-07T21:03:09.244Z,92.21
2023-01-07T21:05:10.204Z,92.36
2023-01-07T21:07:12.018Z,92.04
2023-01-07T21:09:13.004Z,92.01
2023-01-07T21:11:14.563Z,91.6
2023-01-07T21:13:16.079Z,90.5
2023-01-07T21:15:17.398Z,91.35
2023-01-07T21:17:19.299Z,91.03
2023-01-07T21:19:20.799Z,90.62
2023-01-07T21:23:23.480Z,90.61
2023-01-07T21:25:24.996Z,90.54
2023-01-07T21:27:26.177Z,90.31
2023-01-07T21:29:27.755Z,90.64
2023-01-07T21:33:30.822Z,90.79
2023-01-07T21:35:32.135Z,90.24
2023-01-07T21:37:34.026Z,90.14
2023-01-07T21:39:35.275Z,89.72
2023-01-07T21:41:36.279Z,89.74
2023-01-07T21:43:38.328Z,89.66
2023-01-07T21:45:39.861Z,89.48
2023-01-07T21:47:41.511Z,89.44
2023-01-07T21:49:43.159Z,89.7
2023-01-07T21:51:44.777Z,89.66
2023-01-07T21:53:46.225Z,89.49
2023-01-07T21:55:47.893Z,89.07
2023-01-07T21:57:49.176Z,88.55
2023-01-07T21:59:51.001Z,88.58
2023-01-07T22:01:52.604Z,88.46
2023-01-07T22:03:53.886Z,88.12
2023-01-07T22:05:55.437Z,88.48
2023-01-07T22:07:56.955Z,88.27
2023-01-07T22:09:58.948Z,88.42
2023-01-07T22:12:00.163Z,88.63
2023-01-07T22:16:03.304Z,88.18
2023-01-07T22:18:04.477Z,88.36
2023-01-07T22:20:06.026Z,88.52
2023-01-07T22:22:07.918Z,88.16
2023-01-07T22:24:09.708Z,89.1
2023-01-07T22:26:11.542Z,89.11
2023-01-07T22:28:13.111Z,89.58
2023-01-07T22:30:14.216Z,89.64
2023-01-07T22:32:15.502Z,89.73
2023-01-07T22:34:16.595Z,89.98
2023-01-07T22:36:18.298Z,90.48
2023-01-07T22:38:20.148Z,91.25
2023-01-07T22:40:21.985Z,91.55
2023-01-07T22:42:23.733Z,91.88
2023-01-07T22:44:24.837Z,91.99
2023-01-07T22:46:26.608Z,92.21
2023-01-07T22:48:28.572Z,91.76
2023-01-07T22:50:30.137Z,91.27
2023-01-07T22:52:31.823Z,91.34
2023-01-07T22:54:33.300Z,91.5
2023-01-07T22:58:36.382Z,91.76
2023-01-07T23:00:37.404Z,92
2023-01-07T23:02:39.113Z,91.08
2023-01-07T23:04:40.479Z,90.78
2023-01-07T23:06:41.727Z,90.69
2023-01-07T23:08:43.367Z,90.66
2023-01-07T23:10:45.241Z,89.97
2023-01-07T23:12:47.081Z,89.74
2023-01-07T23:14:48.725Z,89.36
2023-01-07T23:16:50.775Z,88.69
2023-01-07T23:20:53.686Z,89.54
2023-01-07T23:22:55.025Z,89
2023-01-07T23:24:56.851Z,87.88
2023-01-07T23:26:58.593Z,87.49
2023-01-07T23:31:02.480Z,86.86
2023-01-07T23:33:03.642Z,86.09
2023-01-07T23:35:05.096Z,86.34
2023-01-07T23:37:06.942Z,86.77
2023-01-07T23:39:08.030Z,86.35
2023-01-07T23:41:09.809Z,86.39
2023-01-07T23:43:11.531Z,85.55
2023-01-07T23:45:12.719Z,85.12
2023-01-07T23:47:13.932Z,84.86
2023-01-07T23:49:15.213Z,84.26
2023-01-07T23:51:16.943Z,84.24
2023-01-07T23:53:18.497Z,84.34
2023-01-07T23:55:19.922Z,84.96
2023-01-07T23:57:21.376Z,85.67
2023-01-07T23:59:22.766Z,86.67
